sensor_id;sensor_type;location;lat;lon;timestamp;pressure;altitude;pressure_sealevel;temperature;humidity
61014;BME280;46899;47.542;19.082;2023-08-08T00:00:44;100390.47;;;13.87;100.00
61014;BME280;46899;47.542;19.082;2023-08-08T00:03:47;100382.63;;;13.87;100.00
61014;BME280;46899;47.542;19.082;2023-08-08T00:06:50;100389.63;;;13.87;100.00
61014;BME280;46899;47.542;19.082;2023-08-08T00:09:52;100403.75;;;13.83;100.00
61014;BME280;46899;47.542;19.082;2023-08-08T00:12:55;100401.06;;;13.84;100.00
61014;BME280;46899;47.542;19.082;2023-08-08T00:15:57;100405.75;;;13.78;100.00
61014;BME280;46899;47.542;19.082;2023-08-08T00:19:00;100410.81;;;13.81;100.00
61014;BME280;46899;47.542;19.082;2023-08-08T00:22:03;100418.88;;;13.76;100.00
61014;BME280;46899;47.542;19.082;2023-08-08T00:25:05;100423.25;;;13.76;100.00
61014;BME280;46899;47.542;19.082;2023-08-08T00:28:08;100413.66;;;13.76;100.00
61014;BME280;46899;47.542;19.082;2023-08-08T00:31:10;100405.59;;;13.81;100.00
61014;BME280;46899;47.542;19.082;2023-08-08T00:34:13;100418.81;;;13.78;100.00
61014;BME280;46899;47.542;19.082;2023-08-08T00:37:16;100420.63;;;13.76;100.00
61014;BME280;46899;47.542;19.082;2023-08-08T00:40:18;100421.56;;;13.75;100.00
61014;BME280;46899;47.542;19.082;2023-08-08T00:43:21;100431.91;;;13.78;100.00
61014;BME280;46899;47.542;19.082;2023-08-08T00:46:23;100427.50;;;13.78;100.00
61014;BME280;46899;47.542;19.082;2023-08-08T00:49:26;100430.28;;;13.75;100.00
61014;BME280;46899;47.542;19.082;2023-08-08T00:52:29;100426.09;;;13.71;100.00
61014;BME280;46899;47.542;19.082;2023-08-08T00:55:32;100426.38;;;13.65;100.00
61014;BME280;46899;47.542;19.082;2023-08-08T00:58:36;100435.28;;;13.61;100.00
61014;BME280;46899;47.542;19.082;2023-08-08T01:01:39;100434.34;;;13.62;100.00
61014;BME280;46899;47.542;19.082;2023-08-08T01:04:42;100438.91;;;13.58;100.00
61014;BME280;46899;47.542;19.082;2023-08-08T01:10:54;100450.81;;;13.64;100.00
61014;BME280;46899;47.542;19.082;2023-08-08T01:13:57;100449.34;;;13.58;100.00
61014;BME280;46899;47.542;19.082;2023-08-08T01:16:59;100450.25;;;13.57;100.00
61014;BME280;46899;47.542;19.082;2023-08-08T01:20:05;100453.16;;;13.51;100.00
61014;BME280;46899;47.542;19.082;2023-08-08T01:26:39;100445.22;;;13.34;100.00
61014;BME280;46899;47.542;19.082;2023-08-08T01:29:43;100452.22;;;13.34;100.00
61014;BME280;46899;47.542;19.082;2023-08-08T01:32:45;100450.97;;;13.42;100.00
61014;BME280;46899;47.542;19.082;2023-08-08T01:35:56;100449.78;;;13.49;100.00
61014;BME280;46899;47.542;19.082;2023-08-08T01:39:00;100444.91;;;13.60;100.00
61014;BME280;46899;47.542;19.082;2023-08-08T01:42:06;100439.53;;;13.63;100.00
61014;BME280;46899;47.542;19.082;2023-08-08T01:45:09;100435.56;;;13.73;99.70
61014;BME280;46899;47.542;19.082;2023-08-08T01:48:12;100433.78;;;13.74;99.82
61014;BME280;46899;47.542;19.082;2023-08-08T01:51:15;100439.12;;;13.73;99.48
61014;BME280;46899;47.542;19.082;2023-08-08T01:54:18;100442.75;;;13.68;100.00
61014;BME280;46899;47.542;19.082;2023-08-08T01:57:20;100436.28;;;13.58;100.00
61014;BME280;46899;47.542;19.082;2023-08-08T02:00:24;100453.00;;;13.54;100.00
61014;BME280;46899;47.542;19.082;2023-08-08T02:03:28;100450.59;;;13.50;100.00
61014;BME280;46899;47.542;19.082;2023-08-08T02:06:30;100446.53;;;13.44;100.00
61014;BME280;46899;47.542;19.082;2023-08-08T02:09:33;100455.47;;;13.39;100.00
61014;BME280;46899;47.542;19.082;2023-08-08T02:12:35;100452.28;;;13.32;100.00
61014;BME280;46899;47.542;19.082;2023-08-08T02:15:38;100459.28;;;13.32;100.00
61014;BME280;46899;47.542;19.082;2023-08-08T02:18:40;100460.00;;;13.35;100.00
61014;BME280;46899;47.542;19.082;2023-08-08T02:21:43;100463.19;;;13.22;100.00
61014;BME280;46899;47.542;19.082;2023-08-08T02:24:46;100458.97;;;13.19;100.00
61014;BME280;46899;47.542;19.082;2023-08-08T02:27:48;100466.75;;;13.21;100.00
61014;BME280;46899;47.542;19.082;2023-08-08T02:30:51;100462.91;;;13.09;100.00
61014;BME280;46899;47.542;19.082;2023-08-08T02:33:55;100472.78;;;13.01;100.00
61014;BME280;46899;47.542;19.082;2023-08-08T02:36:58;100471.63;;;12.88;100.00
61014;BME280;46899;47.542;19.082;2023-08-08T02:40:00;100469.34;;;12.80;100.00
61014;BME280;46899;47.542;19.082;2023-08-08T02:43:03;100470.19;;;12.81;100.00
61014;BME280;46899;47.542;19.082;2023-08-08T02:46:06;100471.22;;;12.77;100.00
61014;BME280;46899;47.542;19.082;2023-08-08T02:49:08;100468.56;;;12.78;100.00
61014;BME280;46899;47.542;19.082;2023-08-08T02:52:11;100466.97;;;12.74;100.00
61014;BME280;46899;47.542;19.082;2023-08-08T02:55:13;100475.47;;;12.79;100.00
61014;BME280;46899;47.542;19.082;2023-08-08T02:58:16;100479.97;;;12.76;100.00
61014;BME280;46899;47.542;19.082;2023-08-08T03:01:19;100486.06;;;12.76;100.00
61014;BME280;46899;47.542;19.082;2023-08-08T03:04:21;100492.75;;;12.82;100.00
61014;BME280;46899;47.542;19.082;2023-08-08T03:07:24;100482.44;;;12.79;100.00
61014;BME280;46899;47.542;19.082;2023-08-08T03:10:27;100480.03;;;12.74;100.00
61014;BME280;46899;47.542;19.082;2023-08-08T03:13:30;100482.72;;;12.73;100.00
61014;BME280;46899;47.542;19.082;2023-08-08T03:16:33;100480.09;;;12.73;100.00
61014;BME280;46899;47.542;19.082;2023-08-08T03:19:36;100487.06;;;12.72;100.00
61014;BME280;46899;47.542;19.082;2023-08-08T03:22:39;100484.41;;;12.74;100.00
61014;BME280;46899;47.542;19.082;2023-08-08T03:25:42;100487.03;;;12.74;100.00
61014;BME280;46899;47.542;19.082;2023-08-08T03:28:44;100490.16;;;12.82;100.00
61014;BME280;46899;47.542;19.082;2023-08-08T03:31:47;100498.84;;;12.82;100.00
61014;BME280;46899;47.542;19.082;2023-08-08T03:34:50;100503.22;;;12.82;100.00
61014;BME280;46899;47.542;19.082;2023-08-08T03:37:53;100494.41;;;12.84;100.00
61014;BME280;46899;47.542;19.082;2023-08-08T03:40:55;100505.44;;;12.91;100.00
61014;BME280;46899;47.542;19.082;2023-08-08T03:43:58;100517.31;;;12.98;100.00
61014;BME280;46899;47.542;19.082;2023-08-08T03:47:00;100515.75;;;12.94;100.00
61014;BME280;46899;47.542;19.082;2023-08-08T03:50:19;100522.06;;;12.88;100.00
61014;BME280;46899;47.542;19.082;2023-08-08T03:53:22;100524.87;;;12.84;100.00
61014;BME280;46899;47.542;19.082;2023-08-08T03:56:24;100532.88;;;12.81;100.00
61014;BME280;46899;47.542;19.082;2023-08-08T03:59:29;100533.38;;;12.89;100.00
61014;BME280;46899;47.542;19.082;2023-08-08T04:02:32;100542.00;;;12.91;100.00
61014;BME280;46899;47.542;19.082;2023-08-08T04:05:35;100542.81;;;12.93;100.00
61014;BME280;46899;47.542;19.082;2023-08-08T04:08:38;100556.69;;;12.93;100.00
61014;BME280;46899;47.542;19.082;2023-08-08T04:11:42;100553.41;;;12.88;100.00
61014;BME280;46899;47.542;19.082;2023-08-08T04:14:44;100558.47;;;12.93;100.00
61014;BME280;46899;47.542;19.082;2023-08-08T04:17:47;100560.94;;;12.96;100.00
61014;BME280;46899;47.542;19.082;2023-08-08T04:20:49;100560.34;;;13.11;100.00
61014;BME280;46899;47.542;19.082;2023-08-08T04:23:52;100563.75;;;13.13;100.00
61014;BME280;46899;47.542;19.082;2023-08-08T04:26:55;100571.00;;;13.27;100.00
61014;BME280;46899;47.542;19.082;2023-08-08T04:29:57;100577.06;;;13.27;100.00
61014;BME280;46899;47.542;19.082;2023-08-08T04:32:59;100588.97;;;13.34;100.00
61014;BME280;46899;47.542;19.082;2023-08-08T04:36:02;100582.63;;;13.40;100.00
61014;BME280;46899;47.542;19.082;2023-08-08T04:39:05;100583.47;;;13.40;100.00
61014;BME280;46899;47.542;19.082;2023-08-08T04:42:08;100588.56;;;13.43;100.00
61014;BME280;46899;47.542;19.082;2023-08-08T04:45:10;100590.00;;;13.50;100.00
61014;BME280;46899;47.542;19.082;2023-08-08T04:48:13;100584.69;;;13.52;100.00
61014;BME280;46899;47.542;19.082;2023-08-08T04:51:15;100594.13;;;13.56;100.00
61014;BME280;46899;47.542;19.082;2023-08-08T04:54:18;100587.56;;;13.66;100.00
61014;BME280;46899;47.542;19.082;2023-08-08T04:57:20;100586.47;;;13.71;100.00
61014;BME280;46899;47.542;19.082;2023-08-08T05:00:25;100586.00;;;13.82;100.00
61014;BME280;46899;47.542;19.082;2023-08-08T05:03:28;100587.56;;;13.86;100.00
61014;BME280;46899;47.542;19.082;2023-08-08T05:06:30;100591.25;;;14.01;100.00
61014;BME280;46899;47.542;19.082;2023-08-08T05:09:33;100595.44;;;14.05;100.00
61014;BME280;46899;47.542;19.082;2023-08-08T05:12:35;100598.47;;;14.14;98.56
61014;BME280;46899;47.542;19.082;2023-08-08T05:15:38;100602.16;;;14.29;98.64
61014;BME280;46899;47.542;19.082;2023-08-08T05:18:40;100598.28;;;14.37;95.19
61014;BME280;46899;47.542;19.082;2023-08-08T05:21:46;100612.09;;;14.41;95.90
61014;BME280;46899;47.542;19.082;2023-08-08T05:24:50;100597.63;;;14.51;93.91
61014;BME280;46899;47.542;19.082;2023-08-08T05:27:52;100600.41;;;14.67;93.75
61014;BME280;46899;47.542;19.082;2023-08-08T05:30:55;100596.47;;;14.75;91.82
61014;BME280;46899;47.542;19.082;2023-08-08T05:33:58;100603.22;;;14.81;90.52
61014;BME280;46899;47.542;19.082;2023-08-08T05:37:01;100609.63;;;14.92;90.29
61014;BME280;46899;47.542;19.082;2023-08-08T05:40:17;100613.41;;;15.04;90.02
61014;BME280;46899;47.542;19.082;2023-08-08T05:43:20;100618.28;;;15.12;87.91
61014;BME280;46899;47.542;19.082;2023-08-08T05:46:23;100615.66;;;15.12;87.52
61014;BME280;46899;47.542;19.082;2023-08-08T05:49:26;100612.97;;;15.13;87.46
61014;BME280;46899;47.542;19.082;2023-08-08T05:52:29;100612.81;;;15.16;87.84
61014;BME280;46899;47.542;19.082;2023-08-08T05:55:31;100618.12;;;15.32;86.07
61014;BME280;46899;47.542;19.082;2023-08-08T05:58:34;100607.56;;;15.33;86.06
61014;BME280;46899;47.542;19.082;2023-08-08T06:01:39;100613.50;;;15.37;86.20
61014;BME280;46899;47.542;19.082;2023-08-08T06:04:42;100617.84;;;15.55;85.73
61014;BME280;46899;47.542;19.082;2023-08-08T06:07:44;100620.69;;;15.67;83.92
61014;BME280;46899;47.542;19.082;2023-08-08T06:10:47;100620.31;;;15.75;82.50
61014;BME280;46899;47.542;19.082;2023-08-08T06:13:49;100619.91;;;15.83;82.50
61014;BME280;46899;47.542;19.082;2023-08-08T06:16:52;100620.72;;;16.00;82.83
61014;BME280;46899;47.542;19.082;2023-08-08T06:19:54;100618.97;;;16.16;81.82
61014;BME280;46899;47.542;19.082;2023-08-08T06:22:59;100628.31;;;16.22;81.17
61014;BME280;46899;47.542;19.082;2023-08-08T06:26:01;100628.06;;;16.26;78.97
61014;BME280;46899;47.542;19.082;2023-08-08T06:29:04;100632.19;;;16.30;79.03
61014;BME280;46899;47.542;19.082;2023-08-08T06:32:07;100629.00;;;16.41;79.04
61014;BME280;46899;47.542;19.082;2023-08-08T06:35:10;100625.91;;;16.66;77.96
61014;BME280;46899;47.542;19.082;2023-08-08T06:38:14;100633.87;;;16.80;76.36
61014;BME280;46899;47.542;19.082;2023-08-08T06:41:17;100636.31;;;16.98;75.67
61014;BME280;46899;47.542;19.082;2023-08-08T06:44:19;100630.50;;;17.23;74.27
61014;BME280;46899;47.542;19.082;2023-08-08T06:47:22;100641.78;;;17.55;72.86
61014;BME280;46899;47.542;19.082;2023-08-08T06:50:24;100638.75;;;17.76;71.25
61014;BME280;46899;47.542;19.082;2023-08-08T06:53:27;100646.38;;;18.23;70.06
61014;BME280;46899;47.542;19.082;2023-08-08T06:56:29;100662.66;;;18.72;67.33
61014;BME280;46899;47.542;19.082;2023-08-08T06:59:32;100655.41;;;19.02;63.71
61014;BME280;46899;47.542;19.082;2023-08-08T07:02:34;100655.31;;;19.83;61.53
61014;BME280;46899;47.542;19.082;2023-08-08T07:05:37;100665.72;;;22.57;53.36
61014;BME280;46899;47.542;19.082;2023-08-08T07:08:41;100665.62;;;27.56;39.98
61014;BME280;46899;47.542;19.082;2023-08-08T07:11:44;100666.22;;;29.93;35.00
61014;BME280;46899;47.542;19.082;2023-08-08T07:14:47;100672.91;;;31.52;31.66
61014;BME280;46899;47.542;19.082;2023-08-08T07:17:49;100668.97;;;32.43;29.80
61014;BME280;46899;47.542;19.082;2023-08-08T07:20:52;100659.72;;;32.17;30.01
61014;BME280;46899;47.542;19.082;2023-08-08T07:23:55;100663.19;;;31.51;30.31
61014;BME280;46899;47.542;19.082;2023-08-08T07:26:58;100661.47;;;33.89;27.01
61014;BME280;46899;47.542;19.082;2023-08-08T07:30:01;100664.75;;;33.56;26.99
61014;BME280;46899;47.542;19.082;2023-08-08T07:33:05;100662.59;;;31.33;29.39
61014;BME280;46899;47.542;19.082;2023-08-08T07:36:07;100644.13;;;28.09;35.39
61014;BME280;46899;47.542;19.082;2023-08-08T07:39:10;100645.38;;;27.97;34.67
61014;BME280;46899;47.542;19.082;2023-08-08T07:42:13;100659.19;;;28.43;35.17
61014;BME280;46899;47.542;19.082;2023-08-08T07:45:15;100665.56;;;29.50;33.19
61014;BME280;46899;47.542;19.082;2023-08-08T07:48:18;100660.50;;;29.47;32.29
61014;BME280;46899;47.542;19.082;2023-08-08T07:51:20;100668.91;;;29.93;32.61
61014;BME280;46899;47.542;19.082;2023-08-08T07:54:23;100669.94;;;30.93;30.18
61014;BME280;46899;47.542;19.082;2023-08-08T07:57:26;100667.00;;;33.53;26.37
61014;BME280;46899;47.542;19.082;2023-08-08T08:00:29;100673.22;;;33.11;26.93
61014;BME280;46899;47.542;19.082;2023-08-08T08:03:32;100671.91;;;34.19;25.82
61014;BME280;46899;47.542;19.082;2023-08-08T08:06:34;100674.44;;;34.62;24.71
61014;BME280;46899;47.542;19.082;2023-08-08T08:09:37;100663.13;;;33.90;25.75
61014;BME280;46899;47.542;19.082;2023-08-08T08:12:39;100658.75;;;34.10;25.76
61014;BME280;46899;47.542;19.082;2023-08-08T08:15:43;100665.88;;;34.17;25.80
61014;BME280;46899;47.542;19.082;2023-08-08T08:18:46;100673.97;;;33.05;25.77
61014;BME280;46899;47.542;19.082;2023-08-08T08:21:50;100670.09;;;32.34;27.53
61014;BME280;46899;47.542;19.082;2023-08-08T08:24:52;100665.28;;;32.44;26.67
61014;BME280;46899;47.542;19.082;2023-08-08T08:27:55;100666.97;;;34.02;24.20
61014;BME280;46899;47.542;19.082;2023-08-08T08:30:57;100666.44;;;34.47;23.95
61014;BME280;46899;47.542;19.082;2023-08-08T08:34:06;100674.84;;;34.59;23.01
61014;BME280;46899;47.542;19.082;2023-08-08T08:37:08;100665.72;;;34.32;24.02
61014;BME280;46899;47.542;19.082;2023-08-08T08:40:10;100665.72;;;31.22;26.60
61014;BME280;46899;47.542;19.082;2023-08-08T08:43:13;100670.72;;;31.93;26.57
61014;BME280;46899;47.542;19.082;2023-08-08T08:46:17;100670.87;;;31.31;27.28
61014;BME280;46899;47.542;19.082;2023-08-08T08:49:20;100676.44;;;30.68;28.59
61014;BME280;46899;47.542;19.082;2023-08-08T08:52:24;100673.94;;;31.51;27.43
61014;BME280;46899;47.542;19.082;2023-08-08T08:55:27;100675.50;;;30.92;27.73
61014;BME280;46899;47.542;19.082;2023-08-08T08:58:29;100663.22;;;29.55;29.91
61014;BME280;46899;47.542;19.082;2023-08-08T09:01:32;100665.00;;;28.05;33.11
61014;BME280;46899;47.542;19.082;2023-08-08T09:04:35;100674.66;;;26.92;34.97
61014;BME280;46899;47.542;19.082;2023-08-08T09:07:37;100674.06;;;26.44;35.92
61014;BME280;46899;47.542;19.082;2023-08-08T09:10:40;100667.94;;;25.49;37.80
61014;BME280;46899;47.542;19.082;2023-08-08T09:13:43;100662.72;;;25.19;38.28
61014;BME280;46899;47.542;19.082;2023-08-08T09:16:46;100666.56;;;24.77;39.10
61014;BME280;46899;47.542;19.082;2023-08-08T09:19:48;100670.22;;;23.95;41.21
61014;BME280;46899;47.542;19.082;2023-08-08T09:22:51;100678.22;;;22.99;43.54
61014;BME280;46899;47.542;19.082;2023-08-08T09:25:54;100674.37;;;22.92;44.64
61014;BME280;46899;47.542;19.082;2023-08-08T09:28:57;100678.53;;;23.49;43.09
61014;BME280;46899;47.542;19.082;2023-08-08T09:32:02;100676.03;;;23.68;42.13
61014;BME280;46899;47.542;19.082;2023-08-08T09:35:04;100672.53;;;23.47;43.46
61014;BME280;46899;47.542;19.082;2023-08-08T09:38:09;100677.03;;;24.08;42.76
61014;BME280;46899;47.542;19.082;2023-08-08T09:41:12;100678.94;;;24.27;41.50
61014;BME280;46899;47.542;19.082;2023-08-08T09:44:16;100681.44;;;24.19;41.74
61014;BME280;46899;47.542;19.082;2023-08-08T09:47:20;100672.22;;;23.81;43.10
61014;BME280;46899;47.542;19.082;2023-08-08T09:50:24;100675.66;;;23.09;43.42
61014;BME280;46899;47.542;19.082;2023-08-08T09:53:28;100671.37;;;23.17;43.31
61014;BME280;46899;47.542;19.082;2023-08-08T09:56:32;100681.00;;;22.98;44.08
61014;BME280;46899;47.542;19.082;2023-08-08T09:59:35;100676.34;;;22.46;45.25
61014;BME280;46899;47.542;19.082;2023-08-08T10:02:38;100680.94;;;22.77;43.62
61014;BME280;46899;47.542;19.082;2023-08-08T10:05:42;100674.16;;;22.84;43.37
61014;BME280;46899;47.542;19.082;2023-08-08T10:08:45;100668.25;;;22.59;43.75
61014;BME280;46899;47.542;19.082;2023-08-08T10:11:47;100670.06;;;22.36;43.71
61014;BME280;46899;47.542;19.082;2023-08-08T10:14:50;100671.16;;;22.56;43.66
61014;BME280;46899;47.542;19.082;2023-08-08T10:17:53;100675.88;;;22.63;42.68
61014;BME280;46899;47.542;19.082;2023-08-08T10:20:57;100664.03;;;22.56;43.79
61014;BME280;46899;47.542;19.082;2023-08-08T10:24:01;100651.25;;;22.61;42.24
61014;BME280;46899;47.542;19.082;2023-08-08T10:27:03;100653.25;;;22.91;43.68
61014;BME280;46899;47.542;19.082;2023-08-08T10:30:07;100643.75;;;23.20;41.96
61014;BME280;46899;47.542;19.082;2023-08-08T10:33:18;100642.75;;;22.89;42.76
61014;BME280;46899;47.542;19.082;2023-08-08T10:36:21;100641.38;;;23.06;42.45
61014;BME280;46899;47.542;19.082;2023-08-08T10:39:25;100647.41;;;22.65;44.61
61014;BME280;46899;47.542;19.082;2023-08-08T10:42:28;100627.19;;;23.39;42.01
61014;BME280;46899;47.542;19.082;2023-08-08T10:45:30;100632.69;;;23.88;40.41
61014;BME280;46899;47.542;19.082;2023-08-08T10:48:33;100632.19;;;24.04;37.75
61014;BME280;46899;47.542;19.082;2023-08-08T10:51:36;100639.81;;;24.48;37.92
61014;BME280;46899;47.542;19.082;2023-08-08T10:54:39;100637.94;;;24.69;36.72
61014;BME280;46899;47.542;19.082;2023-08-08T10:58:04;100636.66;;;24.24;37.57
61014;BME280;46899;47.542;19.082;2023-08-08T11:01:07;100624.72;;;23.98;38.82
61014;BME280;46899;47.542;19.082;2023-08-08T11:04:11;100624.59;;;23.69;40.53
61014;BME280;46899;47.542;19.082;2023-08-08T11:07:14;100622.50;;;23.52;39.99
61014;BME280;46899;47.542;19.082;2023-08-08T11:10:17;100622.31;;;23.64;41.26
61014;BME280;46899;47.542;19.082;2023-08-08T11:13:20;100622.56;;;23.09;41.90
61014;BME280;46899;47.542;19.082;2023-08-08T11:16:23;100622.41;;;23.10;42.23
61014;BME280;46899;47.542;19.082;2023-08-08T11:19:25;100625.81;;;23.12;42.56
61014;BME280;46899;47.542;19.082;2023-08-08T11:22:28;100619.47;;;23.56;41.78
61014;BME280;46899;47.542;19.082;2023-08-08T11:25:31;100624.16;;;23.94;41.01
61014;BME280;46899;47.542;19.082;2023-08-08T11:28:33;100624.81;;;23.87;40.68
61014;BME280;46899;47.542;19.082;2023-08-08T11:31:36;100627.91;;;24.12;38.73
61014;BME280;46899;47.542;19.082;2023-08-08T11:34:39;100626.50;;;24.08;38.63
61014;BME280;46899;47.542;19.082;2023-08-08T11:37:41;100628.31;;;24.38;38.44
61014;BME280;46899;47.542;19.082;2023-08-08T11:40:44;100618.84;;;24.55;37.49
61014;BME280;46899;47.542;19.082;2023-08-08T11:43:47;100622.72;;;24.41;38.70
61014;BME280;46899;47.542;19.082;2023-08-08T11:46:50;100616.72;;;24.48;39.55
61014;BME280;46899;47.542;19.082;2023-08-08T11:49:53;100614.56;;;24.73;37.87
61014;BME280;46899;47.542;19.082;2023-08-08T11:52:56;100612.09;;;24.51;38.96
61014;BME280;46899;47.542;19.082;2023-08-08T11:55:59;100619.34;;;24.79;37.46
61014;BME280;46899;47.542;19.082;2023-08-08T11:59:01;100618.44;;;24.69;35.20
61014;BME280;46899;47.542;19.082;2023-08-08T12:02:05;100609.06;;;24.65;37.31
61014;BME280;46899;47.542;19.082;2023-08-08T12:05:09;100603.91;;;24.03;38.53
61014;BME280;46899;47.542;19.082;2023-08-08T12:08:13;100599.37;;;24.14;38.18
61014;BME280;46899;47.542;19.082;2023-08-08T12:11:19;100596.16;;;23.90;38.61
61014;BME280;46899;47.542;19.082;2023-08-08T12:14:27;100597.56;;;23.43;40.61
61014;BME280;46899;47.542;19.082;2023-08-08T12:17:30;100592.03;;;23.03;39.62
61014;BME280;46899;47.542;19.082;2023-08-08T12:20:33;100584.28;;;23.11;40.83
61014;BME280;46899;47.542;19.082;2023-08-08T12:23:36;100588.84;;;23.83;39.53
61014;BME280;46899;47.542;19.082;2023-08-08T12:26:38;100574.09;;;23.99;38.57
61014;BME280;46899;47.542;19.082;2023-08-08T12:29:41;100579.69;;;23.96;38.74
61014;BME280;46899;47.542;19.082;2023-08-08T12:32:44;100578.16;;;23.73;38.61
61014;BME280;46899;47.542;19.082;2023-08-08T12:35:47;100578.16;;;24.03;37.93
61014;BME280;46899;47.542;19.082;2023-08-08T12:38:50;100581.25;;;24.38;37.25
61014;BME280;46899;47.542;19.082;2023-08-08T12:41:53;100579.22;;;24.61;36.53
61014;BME280;46899;47.542;19.082;2023-08-08T12:44:55;100581.00;;;24.41;36.77
61014;BME280;46899;47.542;19.082;2023-08-08T12:47:58;100577.94;;;24.06;37.71
61014;BME280;46899;47.542;19.082;2023-08-08T12:51:01;100578.97;;;23.64;38.46
61014;BME280;46899;47.542;19.082;2023-08-08T12:54:04;100574.12;;;23.17;39.39
61014;BME280;46899;47.542;19.082;2023-08-08T12:57:06;100573.09;;;23.29;39.37
61014;BME280;46899;47.542;19.082;2023-08-08T13:00:09;100570.69;;;23.26;39.78
61014;BME280;46899;47.542;19.082;2023-08-08T13:03:11;100562.59;;;23.38;40.14
61014;BME280;46899;47.542;19.082;2023-08-08T13:06:15;100563.41;;;23.59;38.90
61014;BME280;46899;47.542;19.082;2023-08-08T13:09:17;100564.94;;;23.21;39.20
61014;BME280;46899;47.542;19.082;2023-08-08T13:12:20;100571.47;;;23.17;40.31
61014;BME280;46899;47.542;19.082;2023-08-08T13:15:23;100568.66;;;22.97;39.91
61014;BME280;46899;47.542;19.082;2023-08-08T13:18:26;100568.41;;;23.00;41.19
61014;BME280;46899;47.542;19.082;2023-08-08T13:21:28;100576.91;;;22.83;42.53
61014;BME280;46899;47.542;19.082;2023-08-08T13:24:31;100587.09;;;22.67;41.95
61014;BME280;46899;47.542;19.082;2023-08-08T13:27:33;100591.09;;;22.28;42.68
61014;BME280;46899;47.542;19.082;2023-08-08T13:30:36;100594.72;;;21.83;44.11
61014;BME280;46899;47.542;19.082;2023-08-08T13:33:39;100599.00;;;21.16;45.00
61014;BME280;46899;47.542;19.082;2023-08-08T13:36:41;100603.59;;;20.78;45.77
61014;BME280;46899;47.542;19.082;2023-08-08T13:39:44;100600.69;;;20.57;46.48
61014;BME280;46899;47.542;19.082;2023-08-08T13:42:47;100602.69;;;20.30;47.80
61014;BME280;46899;47.542;19.082;2023-08-08T13:45:50;100600.03;;;20.17;48.59
61014;BME280;46899;47.542;19.082;2023-08-08T13:48:53;100600.34;;;20.13;48.17
61014;BME280;46899;47.542;19.082;2023-08-08T13:51:55;100598.38;;;20.04;49.49
61014;BME280;46899;47.542;19.082;2023-08-08T13:54:58;100585.34;;;19.88;50.35
61014;BME280;46899;47.542;19.082;2023-08-08T13:58:00;100593.81;;;19.68;50.99
61014;BME280;46899;47.542;19.082;2023-08-08T14:01:03;100594.78;;;19.79;50.73
61014;BME280;46899;47.542;19.082;2023-08-08T14:04:05;100591.59;;;19.74;51.49
61014;BME280;46899;47.542;19.082;2023-08-08T14:07:08;100595.09;;;19.75;51.49
61014;BME280;46899;47.542;19.082;2023-08-08T14:10:11;100593.72;;;19.69;52.19
61014;BME280;46899;47.542;19.082;2023-08-08T14:13:13;100590.00;;;19.72;52.57
61014;BME280;46899;47.542;19.082;2023-08-08T14:16:17;100595.50;;;19.69;53.80
61014;BME280;46899;47.542;19.082;2023-08-08T14:19:19;100597.94;;;19.97;53.04
61014;BME280;46899;47.542;19.082;2023-08-08T14:22:22;100592.97;;;20.05;52.29
61014;BME280;46899;47.542;19.082;2023-08-08T14:25:24;100586.63;;;20.08;51.77
61014;BME280;46899;47.542;19.082;2023-08-08T14:28:27;100587.25;;;20.11;51.97
61014;BME280;46899;47.542;19.082;2023-08-08T14:31:30;100582.25;;;20.19;53.22
61014;BME280;46899;47.542;19.082;2023-08-08T14:34:34;100580.03;;;20.38;51.52
61014;BME280;46899;47.542;19.082;2023-08-08T14:37:39;100581.00;;;20.61;51.12
61014;BME280;46899;47.542;19.082;2023-08-08T14:40:42;100582.19;;;20.81;52.18
61014;BME280;46899;47.542;19.082;2023-08-08T14:43:45;100570.16;;;21.00;50.63
61014;BME280;46899;47.542;19.082;2023-08-08T14:46:48;100574.72;;;20.98;48.76
61014;BME280;46899;47.542;19.082;2023-08-08T14:49:50;100576.37;;;21.12;49.21
61014;BME280;46899;47.542;19.082;2023-08-08T14:52:53;100572.59;;;21.38;49.40
61014;BME280;46899;47.542;19.082;2023-08-08T14:55:55;100558.56;;;21.71;49.05
61014;BME280;46899;47.542;19.082;2023-08-08T14:58:58;100567.88;;;21.99;48.02
61014;BME280;46899;47.542;19.082;2023-08-08T15:02:00;100566.91;;;22.11;46.81
61014;BME280;46899;47.542;19.082;2023-08-08T15:05:03;100567.62;;;22.24;46.90
61014;BME280;46899;47.542;19.082;2023-08-08T15:08:06;100566.75;;;22.45;45.67
61014;BME280;46899;47.542;19.082;2023-08-08T15:11:09;100565.44;;;22.29;46.38
61014;BME280;46899;47.542;19.082;2023-08-08T15:14:11;100556.78;;;21.83;46.53
61014;BME280;46899;47.542;19.082;2023-08-08T15:17:14;100550.62;;;21.82;47.04
61014;BME280;46899;47.542;19.082;2023-08-08T15:20:16;100558.13;;;21.99;46.37
61014;BME280;46899;47.542;19.082;2023-08-08T15:23:19;100553.78;;;21.98;49.07
61014;BME280;46899;47.542;19.082;2023-08-08T15:26:21;100555.34;;;21.90;46.84
61014;BME280;46899;47.542;19.082;2023-08-08T15:29:25;100551.03;;;22.00;46.17
61014;BME280;46899;47.542;19.082;2023-08-08T15:32:29;100539.44;;;21.78;46.23
61014;BME280;46899;47.542;19.082;2023-08-08T15:35:31;100539.91;;;21.72;47.30
61014;BME280;46899;47.542;19.082;2023-08-08T15:38:34;100542.34;;;21.87;47.67
61014;BME280;46899;47.542;19.082;2023-08-08T15:41:36;100539.91;;;21.72;46.94
61014;BME280;46899;47.542;19.082;2023-08-08T15:44:39;100531.81;;;21.74;48.04
61014;BME280;46899;47.542;19.082;2023-08-08T15:47:42;100533.75;;;21.61;50.28